Time;durP1;ratioP1;P1;durP2;ratioP2;P2;SDS_P1;SDS_P2;PMS_P1;PMS_P2;Temp;Humidity;BMP_temperature;BMP_pressure;BME280_temperature;BME280_humidity;BME280_pressure;Samples;Min_cycle;Max_cycle;Signal;HPM_P1;HPM_P2
2023/04/03 00:01:30;;;;;;;3.97;1.70;;;2.20;99.90;;;;;;5125966;27;20149;-73
2023/04/03 00:03:56;;;;;;;2.40;1.40;;;2.20;99.90;;;;;;5138652;27;20133;-72
2023/04/03 00:06:22;;;;;;;4.88;1.50;;;2.20;99.90;;;;;;5129477;27;20436;-73
2023/04/03 00:08:49;;;;;;;7.28;1.85;;;2.20;99.90;;;;;;5120169;27;20044;-73
2023/04/03 00:11:15;;;;;;;3.45;1.20;;;2.20;99.90;;;;;;5103436;27;20361;-73
2023/04/03 00:13:42;;;;;;;4.35;1.67;;;2.20;99.90;;;;;;5122976;28;20048;-72
2023/04/03 00:16:08;;;;;;;2.47;1.38;;;2.40;99.90;;;;;;5112548;28;20043;-73
2023/04/03 00:18:35;;;;;;;2.97;1.30;;;2.20;99.90;;;;;;5096678;28;20085;-73
2023/04/03 00:21:01;;;;;;;7.47;1.60;;;2.30;99.90;;;;;;5119907;28;20188;-73
2023/04/03 00:23:27;;;;;;;3.90;1.33;;;2.20;99.90;;;;;;5119659;28;20349;-72
2023/04/03 00:25:53;;;;;;;2.33;1.10;;;2.30;99.90;;;;;;5125075;28;20402;-71
2023/04/03 00:28:19;;;;;;;2.47;1.20;;;2.30;99.90;;;;;;5118867;28;20043;-72
2023/04/03 00:30:45;;;;;;;2.20;1.17;;;2.20;99.90;;;;;;5116886;28;20057;-72
2023/04/03 00:33:14;;;;;;;4.63;1.30;;;2.20;99.90;;;;;;5124701;28;20035;-72
2023/04/03 00:35:40;;;;;;;3.83;1.27;;;2.20;99.90;;;;;;5105154;27;20188;-71
2023/04/03 00:38:06;;;;;;;3.65;1.95;;;2.20;99.90;;;;;;5145140;27;20598;-72
2023/04/03 00:40:37;;;;;;;3.20;1.25;;;2.20;99.90;;;;;;5124994;27;20043;-73
2023/04/03 00:43:12;;;;;;;4.57;1.40;;;2.20;99.90;;;;;;5125243;27;20070;-72
2023/04/03 00:45:40;;;;;;;6.53;2.10;;;2.20;99.90;;;;;;5118026;27;20088;-72
2023/04/03 00:48:07;;;;;;;;;;;2.20;99.90;;;;;;5139114;27;20042;-72
2023/04/03 00:50:38;;;;;;;2.70;1.33;;;2.20;99.90;;;;;;5129578;27;20019;-72
2023/04/03 00:53:06;;;;;;;5.57;1.50;;;2.10;99.90;;;;;;5125204;27;20118;-72
2023/04/03 00:55:33;;;;;;;3.88;1.50;;;2.10;99.90;;;;;;5122021;27;20047;-72
2023/04/03 00:58:01;;;;;;;6.88;1.58;;;2.20;99.90;;;;;;5098164;28;20043;-72
2023/04/03 01:00:27;;;;;;;10.05;1.98;;;2.10;99.90;;;;;;5116555;27;20093;-72
2023/04/03 01:02:53;;;;;;;5.43;1.45;;;2.10;99.90;;;;;;5108629;27;20043;-72
2023/04/03 01:05:21;;;;;;;3.65;1.50;;;2.00;99.90;;;;;;5134107;27;20042;-71
2023/04/03 01:07:47;;;;;;;5.30;1.53;;;2.00;99.90;;;;;;5134379;27;20062;-72
2023/04/03 01:10:16;;;;;;;6.97;1.90;;;2.00;99.90;;;;;;5122802;27;20389;-71
2023/04/03 01:12:45;;;;;;;10.10;1.98;;;2.00;99.90;;;;;;5119135;27;20058;-71
2023/04/03 01:15:13;;;;;;;;;;;2.00;99.90;;;;;;5122695;27;20062;-72
2023/04/03 01:17:44;;;;;;;5.05;1.50;;;2.00;99.90;;;;;;5126376;27;19923;-72
2023/04/03 01:20:31;;;;;;;4.07;1.40;;;2.00;99.90;;;;;;5125522;27;20080;-72
2023/04/03 01:23:02;;;;;;;7.63;2.20;;;1.90;99.90;;;;;;5137272;27;20043;-72
2023/04/03 01:25:28;;;;;;;5.45;1.50;;;1.90;99.90;;;;;;5108643;27;20047;-72
2023/04/03 01:27:55;;;;;;;5.47;1.67;;;1.90;99.90;;;;;;5124571;27;20031;-72
2023/04/03 01:30:25;;;;;;;5.93;1.83;;;1.90;99.90;;;;;;5118454;27;20055;-72
2023/04/03 01:32:50;;;;;;;4.40;1.23;;;1.80;99.90;;;;;;5124172;27;20521;-72
2023/04/03 01:35:16;;;;;;;4.10;2.00;;;1.80;99.90;;;;;;5119208;27;20035;-72
2023/04/03 01:37:42;;;;;;;8.88;2.08;;;1.80;99.90;;;;;;5128816;27;20040;-72
2023/04/03 01:40:08;;;;;;;5.35;1.90;;;1.80;99.90;;;;;;5131391;27;20035;-72
2023/04/03 01:42:34;;;;;;;7.60;1.90;;;1.80;99.90;;;;;;5108781;27;20039;-72
2023/04/03 01:44:59;;;;;;;6.13;2.15;;;1.80;99.90;;;;;;5100945;27;20065;-71
2023/04/03 01:47:25;;;;;;;3.10;1.60;;;1.70;99.90;;;;;;5131559;27;20065;-72
2023/04/03 01:49:51;;;;;;;5.60;1.90;;;1.70;99.90;;;;;;5107192;28;20040;-71
2023/04/03 01:52:17;;;;;;;5.53;1.90;;;1.60;99.90;;;;;;5108189;27;20128;-71
2023/04/03 01:54:42;;;;;;;6.35;1.70;;;1.60;99.90;;;;;;5133943;27;20070;-72
2023/04/03 01:57:08;;;;;;;5.68;1.90;;;1.60;99.90;;;;;;5123846;27;20091;-71
2023/04/03 01:59:34;;;;;;;5.28;1.80;;;1.60;99.90;;;;;;5120839;27;20047;-71
2023/04/03 02:01:59;;;;;;;6.13;2.20;;;1.60;99.90;;;;;;5102327;27;20044;-72
2023/04/03 02:04:25;;;;;;;3.70;1.58;;;1.80;99.90;;;;;;5139239;27;20717;-71
2023/04/03 02:06:50;;;;;;;6.15;1.80;;;1.60;99.90;;;;;;5109924;28;20085;-72
2023/04/03 02:09:16;;;;;;;5.47;1.90;;;1.50;99.90;;;;;;5097929;28;20151;-72
2023/04/03 02:11:42;;;;;;;8.60;1.85;;;1.50;99.90;;;;;;5115476;27;20397;-73
2023/04/03 02:14:07;;;;;;;5.82;2.00;;;1.20;99.90;;;;;;5121554;27;20138;-72
2023/04/03 02:16:33;;;;;;;6.35;1.63;;;1.50;99.90;;;;;;5109460;27;20039;-72
2023/04/03 02:18:59;;;;;;;5.43;1.92;;;1.50;99.90;;;;;;5093125;28;20047;-73
2023/04/03 02:21:24;;;;;;;11.65;2.55;;;1.40;99.90;;;;;;5115403;27;20436;-72
2023/04/03 02:23:50;;;;;;;6.57;2.30;;;1.40;99.90;;;;;;5118727;27;20093;-72
2023/04/03 02:26:16;;;;;;;5.45;2.00;;;1.40;99.90;;;;;;5120286;27;20043;-72
2023/04/03 02:28:42;;;;;;;5.43;1.73;;;1.40;99.90;;;;;;5125298;27;20042;-72
2023/04/03 02:31:09;;;;;;;5.10;1.85;;;1.40;99.90;;;;;;5132088;27;20043;-72
2023/04/03 02:33:36;;;;;;;7.65;1.92;;;1.40;99.90;;;;;;5111609;27;20053;-71
2023/04/03 02:36:06;;;;;;;4.50;2.13;;;1.30;99.90;;;;;;5125510;27;20035;-72
2023/04/03 02:38:32;;;;;;;5.88;1.80;;;1.30;99.90;;;;;;5136585;27;20093;-72
2023/04/03 02:41:07;;;;;;;7.88;1.77;;;1.30;99.90;;;;;;5125563;27;20039;-72
2023/04/03 02:43:32;;;;;;;7.95;2.10;;;1.30;99.90;;;;;;5123206;27;20138;-72
2023/04/03 02:45:58;;;;;;;6.97;1.85;;;1.20;99.90;;;;;;5120691;27;20046;-72
2023/04/03 02:48:25;;;;;;;8.77;1.92;;;1.20;99.90;;;;;;5129522;27;20524;-72
2023/04/03 02:50:51;;;;;;;6.97;1.88;;;1.20;99.90;;;;;;5134609;27;20051;-72
2023/04/03 02:53:17;;;;;;;6.78;2.22;;;1.20;99.90;;;;;;5128081;27;20055;-72
2023/04/03 02:55:42;;;;;;;10.23;2.35;;;1.10;99.90;;;;;;5097960;27;20135;-72
2023/04/03 02:58:08;;;;;;;10.07;1.95;;;1.10;99.90;;;;;;5117490;28;20071;-72
2023/04/03 03:00:34;;;;;;;14.23;2.80;;;1.10;99.90;;;;;;5101902;27;20047;-72
2023/04/03 03:03:00;;;;;;;8.68;1.90;;;1.00;99.90;;;;;;5102132;27;20035;-72
2023/04/03 03:05:27;;;;;;;8.35;2.28;;;1.00;99.90;;;;;;5133679;27;20047;-72
2023/04/03 03:07:53;;;;;;;6.57;2.28;;;1.00;99.90;;;;;;5108645;27;20046;-74
2023/04/03 03:10:19;;;;;;;4.38;2.10;;;1.00;99.90;;;;;;5120022;27;20047;-72
2023/04/03 03:12:45;;;;;;;4.30;1.80;;;0.90;99.90;;;;;;5131758;27;20044;-71
2023/04/03 03:15:11;;;;;;;4.75;1.92;;;1.00;99.90;;;;;;5126648;27;20047;-72
2023/04/03 03:17:37;;;;;;;5.80;1.95;;;0.90;99.90;;;;;;5122038;27;20039;-71
2023/04/03 03:20:04;;;;;;;6.30;2.17;;;0.80;99.90;;;;;;5130632;27;20040;-72
2023/04/03 03:22:30;;;;;;;5.93;2.05;;;0.90;99.90;;;;;;5121036;27;20491;-72
2023/04/03 03:24:56;;;;;;;8.48;1.83;;;0.70;99.90;;;;;;5122925;27;20100;-71
2023/04/03 03:27:22;;;;;;;9.43;2.17;;;0.70;99.90;;;;;;5129514;27;20031;-72
2023/04/03 03:29:47;;;;;;;9.73;2.30;;;0.70;99.90;;;;;;5119606;27;20031;-72
2023/04/03 03:32:13;;;;;;;9.57;1.95;;;0.70;99.90;;;;;;5101676;27;20046;-72
2023/04/03 03:34:39;;;;;;;6.60;2.08;;;0.60;99.90;;;;;;5129670;27;20036;-73
2023/04/03 03:37:05;;;;;;;6.90;2.28;;;0.80;99.90;;;;;;5125389;27;20475;-72
2023/04/03 03:39:30;;;;;;;10.00;2.30;;;0.70;99.90;;;;;;5125147;27;20050;-72
2023/04/03 03:41:56;;;;;;;7.55;2.53;;;0.60;99.90;;;;;;5125377;27;20099;-72
2023/04/03 03:44:21;;;;;;;9.18;2.28;;;0.50;99.90;;;;;;5121688;27;20316;-72
2023/04/03 03:46:47;;;;;;;10.48;2.33;;;0.50;99.90;;;;;;5124797;27;20500;-72
2023/04/03 03:49:13;;;;;;;5.45;2.20;;;0.50;99.90;;;;;;5122205;27;20396;-72
2023/04/03 03:51:39;;;;;;;7.68;2.30;;;0.50;99.90;;;;;;5132959;27;20039;-72
2023/04/03 03:54:05;;;;;;;5.22;2.10;;;0.50;99.90;;;;;;5137006;27;20055;-72
2023/04/03 03:56:31;;;;;;;7.70;2.00;;;0.40;99.90;;;;;;5108404;27;20477;-71
2023/04/03 03:58:56;;;;;;;12.48;2.40;;;0.60;99.90;;;;;;5132912;27;20051;-71
2023/04/03 04:01:24;;;;;;;14.10;3.03;;;0.30;99.90;;;;;;5129899;27;20046;-72
2023/04/03 04:03:50;;;;;;;11.83;2.40;;;0.30;99.90;;;;;;5106866;28;20118;-72
2023/04/03 04:06:16;;;;;;;10.80;3.13;;;0.50;99.90;;;;;;5111765;28;20452;-72
2023/04/03 04:08:42;;;;;;;5.28;2.40;;;0.20;99.90;;;;;;5122557;27;20071;-72
2023/04/03 04:11:09;;;;;;;10.93;2.22;;;0.20;99.90;;;;;;5125532;27;20044;-72
2023/04/03 04:13:34;;;;;;;5.97;2.15;;;0.20;99.90;;;;;;5126051;28;20100;-72
2023/04/03 04:16:00;;;;;;;12.80;2.55;;;0.10;99.90;;;;;;5127465;28;20122;-71
2023/04/03 04:18:26;;;;;;;8.70;2.42;;;0.10;99.90;;;;;;5127223;28;20035;-72
2023/04/03 04:20:52;;;;;;;4.75;2.40;;;0.10;99.90;;;;;;5125749;28;20080;-72
2023/04/03 04:23:18;;;;;;;8.20;2.97;;;0.10;99.90;;;;;;5114277;28;20039;-71
2023/04/03 04:25:48;;;;;;;7.75;2.33;;;0.10;99.90;;;;;;5096482;28;20038;-72
2023/04/03 04:28:15;;;;;;;5.35;2.33;;;0.30;99.90;;;;;;5100349;28;20068;-72
2023/04/03 04:30:41;;;;;;;6.25;2.35;;;0.00;99.90;;;;;;5118090;28;20043;-72
2023/04/03 04:33:06;;;;;;;7.63;2.65;;;0.00;99.90;;;;;;5129231;28;20047;-72
2023/04/03 04:35:33;;;;;;;8.65;2.63;;;0.00;99.90;;;;;;5105667;27;20385;-72
2023/04/03 04:37:58;;;;;;;12.32;2.60;;;0.00;99.90;;;;;;5130740;28;20046;-72
2023/04/03 04:40:24;;;;;;;7.85;2.45;;;-0.10;99.90;;;;;;5128933;27;20039;-72
2023/04/03 04:42:50;;;;;;;12.07;3.33;;;-0.10;99.90;;;;;;5127805;27;20399;-72
2023/04/03 04:45:16;;;;;;;11.80;3.33;;;-0.10;99.90;;;;;;5104133;27;20035;-72
2023/04/03 04:47:41;;;;;;;8.30;2.38;;;-0.10;99.90;;;;;;5094376;27;20044;-72
2023/04/03 04:50:08;;;;;;;7.95;2.80;;;-0.10;99.90;;;;;;5113630;27;20042;-72
2023/04/03 04:52:34;;;;;;;11.65;3.75;;;-0.10;99.90;;;;;;5122945;27;20039;-72
2023/04/03 04:55:00;;;;;;;10.82;2.75;;;0.00;99.90;;;;;;5105175;27;20127;-72
2023/04/03 04:57:25;;;;;;;10.73;3.17;;;0.00;99.90;;;;;;5124375;27;20081;-71
2023/04/03 04:59:51;;;;;;;10.20;2.88;;;0.10;99.90;;;;;;5116078;27;20044;-72
2023/04/03 05:02:17;;;;;;;7.97;3.03;;;-0.10;99.90;;;;;;5119963;27;20031;-72
2023/04/03 05:04:43;;;;;;;7.00;2.85;;;-0.10;99.90;;;;;;5117774;28;20118;-73
2023/04/03 05:07:09;;;;;;;11.70;2.92;;;-0.10;99.90;;;;;;5122019;27;20377;-73
2023/04/03 05:09:35;;;;;;;13.07;3.25;;;-0.10;99.90;;;;;;5114984;27;20031;-72
2023/04/03 05:12:01;;;;;;;7.35;2.88;;;0.00;99.90;;;;;;5116763;27;20027;-73
2023/04/03 05:14:27;;;;;;;10.95;3.22;;;-0.10;99.90;;;;;;5127711;28;20127;-72
2023/04/03 05:16:53;;;;;;;10.23;3.30;;;-0.10;99.90;;;;;;5127818;27;20184;-72
2023/04/03 05:19:22;;;;;;;9.23;3.20;;;-0.10;99.90;;;;;;5119865;27;20091;-72
2023/04/03 05:21:48;;;;;;;13.43;3.10;;;-0.10;99.90;;;;;;5123645;27;20044;-72
2023/04/03 05:24:15;;;;;;;9.13;3.25;;;-0.20;99.90;;;;;;5126056;27;20505;-72
2023/04/03 05:26:42;;;;;;;7.10;2.58;;;-0.20;99.90;;;;;;5126781;27;20035;-73
2023/04/03 05:29:07;;;;;;;8.15;2.67;;;-0.20;99.90;;;;;;5121052;27;20059;-72
2023/04/03 05:31:33;;;;;;;7.25;2.97;;;-0.10;99.90;;;;;;5125039;27;20101;-71
2023/04/03 05:33:59;;;;;;;10.90;3.03;;;-0.10;99.90;;;;;;5123598;27;20067;-72
2023/04/03 05:36:25;;;;;;;9.13;2.80;;;-0.10;99.90;;;;;;5123405;27;20051;-73
2023/04/03 05:38:51;;;;;;;9.82;2.95;;;-0.10;99.90;;;;;;5122997;27;20342;-73
2023/04/03 05:41:18;;;;;;;12.80;3.10;;;0.00;99.90;;;;;;5126344;27;20389;-73
2023/04/03 05:43:44;;;;;;;6.85;2.58;;;0.00;99.90;;;;;;5118711;27;20035;-74
2023/04/03 05:46:15;;;;;;;5.47;2.60;;;0.10;99.90;;;;;;5124504;27;20054;-73
2023/04/03 05:48:42;;;;;;;15.95;3.33;;;0.10;99.90;;;;;;5118911;27;20031;-73
2023/04/03 05:51:17;;;;;;;9.80;3.47;;;0.20;99.90;;;;;;5134193;27;20031;-73
2023/04/03 05:53:45;;;;;;;8.10;2.78;;;0.20;99.90;;;;;;5089067;27;20052;-73
2023/04/03 05:56:11;;;;;;;8.10;2.67;;;0.30;99.90;;;;;;5123744;27;20040;-73
2023/04/03 05:58:36;;;;;;;8.75;2.60;;;0.30;99.90;;;;;;5122574;27;20047;-73
2023/04/03 06:01:02;;;;;;;9.27;3.22;;;0.40;99.90;;;;;;5127577;27;20547;-72
2023/04/03 06:03:28;;;;;;;8.63;2.78;;;0.40;99.90;;;;;;5129336;27;20075;-74
2023/04/03 06:05:54;;;;;;;10.18;2.88;;;0.50;99.90;;;;;;5135526;27;20063;-72
2023/04/03 06:08:20;;;;;;;7.93;2.65;;;0.50;99.90;;;;;;5137270;27;20118;-72
2023/04/03 06:10:46;;;;;;;8.60;2.88;;;0.60;99.90;;;;;;5118032;27;20050;-72
2023/04/03 06:13:12;;;;;;;9.15;2.67;;;0.70;99.90;;;;;;5119284;27;20031;-73
2023/04/03 06:15:39;;;;;;;7.93;2.80;;;0.70;99.90;;;;;;5096486;28;20043;-72
2023/04/03 06:18:06;;;;;;;8.98;2.90;;;0.80;99.90;;;;;;5115800;27;20129;-72
2023/04/03 06:20:32;;;;;;;8.40;2.70;;;0.90;99.90;;;;;;5128725;27;20036;-73
2023/04/03 06:22:58;;;;;;;10.68;2.88;;;1.00;99.90;;;;;;5133404;27;20035;-72
2023/04/03 06:25:24;;;;;;;9.85;3.30;;;1.10;99.90;;;;;;5121706;27;20031;-73
2023/04/03 06:27:49;;;;;;;11.50;2.97;;;1.20;99.90;;;;;;5124875;27;20512;-73
2023/04/03 06:30:15;;;;;;;13.25;3.25;;;1.30;99.90;;;;;;5126045;27;20039;-73
2023/04/03 06:32:41;;;;;;;9.13;2.92;;;1.50;99.90;;;;;;5113864;27;20042;-72
2023/04/03 06:35:07;;;;;;;8.40;2.40;;;1.60;99.90;;;;;;5136022;27;20462;-73
2023/04/03 06:37:33;;;;;;;10.20;3.00;;;1.80;99.90;;;;;;5128453;27;20054;-73
2023/04/03 06:40:00;;;;;;;6.82;2.97;;;2.20;99.90;;;;;;5130379;27;20394;-73
2023/04/03 06:42:26;;;;;;;12.55;3.20;;;2.40;99.90;;;;;;5124956;27;20043;-74
2023/04/03 06:44:51;;;;;;;9.43;3.13;;;2.50;99.90;;;;;;5127469;27;20104;-73
2023/04/03 06:47:17;;;;;;;10.80;4.10;;;2.60;99.90;;;;;;5135226;27;20039;-74
2023/04/03 06:49:43;;;;;;;14.00;4.05;;;2.60;99.90;;;;;;5123432;27;20054;-74
2023/04/03 06:52:09;;;;;;;8.52;2.83;;;2.80;99.90;;;;;;5131931;27;20631;-73
2023/04/03 06:54:35;;;;;;;8.57;2.90;;;2.90;99.90;;;;;;5132915;27;20292;-73
2023/04/03 06:57:02;;;;;;;7.60;2.97;;;3.10;99.90;;;;;;5127090;27;20503;-73
2023/04/03 06:59:28;;;;;;;9.00;3.10;;;3.20;99.90;;;;;;5137728;27;20397;-73
2023/04/03 07:01:53;;;;;;;8.57;3.22;;;3.60;99.90;;;;;;5135470;27;20062;-73
2023/04/03 07:04:22;;;;;;;8.43;2.58;;;4.00;99.90;;;;;;5131572;27;20405;-73
2023/04/03 07:06:48;;;;;;;8.18;2.95;;;4.30;99.90;;;;;;5133351;27;20039;-71
2023/04/03 07:09:14;;;;;;;8.88;3.10;;;4.50;99.90;;;;;;5121924;27;20038;-73
2023/04/03 07:11:40;;;;;;;9.82;3.03;;;5.10;99.90;;;;;;5128123;27;20039;-73
2023/04/03 07:14:07;;;;;;;10.07;2.90;;;5.10;99.90;;;;;;5125426;27;20073;-73
2023/04/03 07:16:34;;;;;;;8.20;3.00;;;5.10;99.90;;;;;;5120033;27;20084;-73
2023/04/03 07:19:01;;;;;;;9.43;3.53;;;5.10;99.90;;;;;;5124060;27;20047;-73
2023/04/03 07:21:27;;;;;;;11.27;2.92;;;4.90;99.90;;;;;;5120088;27;20039;-73
2023/04/03 07:23:54;;;;;;;8.30;3.05;;;5.10;99.90;;;;;;5129579;27;20054;-73
2023/04/03 07:26:20;;;;;;;9.15;2.50;;;5.10;99.90;;;;;;5126259;27;20062;-71
2023/04/03 07:28:48;;;;;;;10.48;2.80;;;5.00;99.90;;;;;;5119375;27;20141;-70
2023/04/03 07:31:16;;;;;;;14.43;3.80;;;4.80;99.90;;;;;;5132667;27;20035;-71
2023/04/03 07:33:43;;;;;;;7.35;2.63;;;4.40;99.90;;;;;;5132512;27;20069;-71
2023/04/03 07:36:09;;;;;;;7.35;3.00;;;4.40;99.90;;;;;;5127706;27;20042;-71
2023/04/03 07:38:36;;;;;;;5.68;2.58;;;4.50;99.90;;;;;;5135216;27;20043;-70
2023/04/03 07:41:03;;;;;;;10.55;3.20;;;4.60;99.90;;;;;;5134314;27;20122;-72
2023/04/03 07:43:29;;;;;;;8.50;3.78;;;4.60;99.90;;;;;;5115863;27;20040;-70
2023/04/03 07:45:54;;;;;;;7.82;2.83;;;4.70;99.90;;;;;;5114370;28;20169;-70
2023/04/03 07:48:22;;;;;;;9.57;3.15;;;4.80;99.90;;;;;;5112917;27;20046;-71
2023/04/03 07:50:48;;;;;;;9.82;2.70;;;4.80;99.90;;;;;;5114998;27;20412;-70
2023/04/03 07:53:14;;;;;;;9.95;2.60;;;4.90;99.90;;;;;;5143960;27;20030;-72
2023/04/03 07:55:42;;;;;;;6.70;2.60;;;4.70;99.90;;;;;;5129879;27;20683;-73
2023/04/03 07:58:13;;;;;;;7.78;2.72;;;4.90;99.90;;;;;;5112711;28;20542;-72
2023/04/03 08:00:39;;;;;;;8.32;2.75;;;4.90;99.90;;;;;;5085449;28;20473;-71
2023/04/03 08:03:05;;;;;;;7.10;2.30;;;5.10;99.90;;;;;;5121278;27;20043;-72
2023/04/03 08:05:31;;;;;;;8.35;2.97;;;5.10;99.90;;;;;;5132463;27;20054;-72
2023/04/03 08:07:57;;;;;;;9.73;2.80;;;5.20;99.90;;;;;;5116063;28;20035;-75
2023/04/03 08:10:23;;;;;;;6.68;2.30;;;5.30;99.90;;;;;;5130896;27;20114;-73
2023/04/03 08:12:49;;;;;;;10.45;2.53;;;5.30;99.90;;;;;;5126003;27;20452;-73
2023/04/03 08:15:15;;;;;;;8.90;2.45;;;5.30;99.90;;;;;;5089231;28;20104;-73
2023/04/03 08:17:40;;;;;;;9.00;2.65;;;5.40;99.90;;;;;;5122685;28;20046;-73
2023/04/03 08:20:08;;;;;;;6.60;2.22;;;5.30;99.90;;;;;;5102443;28;20039;-72
2023/04/03 08:22:34;;;;;;;7.90;2.80;;;5.30;99.90;;;;;;5130815;28;20043;-72
2023/04/03 08:25:00;;;;;;;5.03;2.47;;;5.50;99.90;;;;;;5100324;28;20043;-72
2023/04/03 08:27:26;;;;;;;6.65;2.15;;;5.60;99.90;;;;;;5127480;27;20049;-72
2023/04/03 08:29:52;;;;;;;6.35;2.53;;;5.70;99.90;;;;;;5123554;28;20056;-72
2023/04/03 08:32:18;;;;;;;6.93;2.30;;;5.80;99.90;;;;;;5091578;28;20232;-72
2023/04/03 08:34:44;;;;;;;9.48;2.80;;;5.90;99.90;;;;;;5098452;28;20405;-71
2023/04/03 08:37:10;;;;;;;9.63;2.47;;;5.90;99.90;;;;;;5098560;28;20047;-71
2023/04/03 08:39:36;;;;;;;9.77;2.58;;;6.10;99.90;;;;;;5103810;28;20044;-71
2023/04/03 08:42:15;;;;;;;6.15;2.50;;;6.30;99.90;;;;;;5124437;27;20035;-71
2023/04/03 08:44:58;;;;;;;8.85;2.50;;;6.50;99.90;;;;;;5106919;28;20046;-71
2023/04/03 08:47:36;;;;;;;6.00;2.42;;;6.60;99.90;;;;;;5120677;28;20052;-73
2023/04/03 08:50:07;;;;;;;5.50;2.20;;;6.80;99.90;;;;;;5127117;28;20122;-72
2023/04/03 08:52:46;;;;;;;6.80;2.42;;;6.90;99.90;;;;;;5137947;27;20047;-72
2023/04/03 08:55:26;;;;;;;;;;;7.10;99.90;;;;;;5118851;27;20104;-72
2023/04/03 08:58:01;;;;;;;6.88;2.28;;;7.40;99.90;;;;;;5125020;27;19926;-73
2023/04/03 09:00:47;;;;;;;7.00;2.13;;;7.40;99.90;;;;;;5103368;27;20053;-71
2023/04/03 09:03:16;;;;;;;5.25;1.77;;;7.40;99.90;;;;;;5106615;28;20097;-71
2023/04/03 09:06:05;;;;;;;;;;;7.70;99.90;;;;;;5108535;28;20093;-72
2023/04/03 09:08:53;;;;;;;5.10;2.17;;;7.80;99.90;;;;;;5109031;27;19988;-71
2023/04/03 09:11:29;;;;;;;7.38;2.15;;;8.10;99.90;;;;;;5118733;27;20515;-69
2023/04/03 09:14:02;;;;;;;5.95;1.80;;;8.20;99.50;;;;;;5116466;28;20122;-70
2023/04/03 09:16:59;;;;;;;3.75;1.70;;;8.20;98.80;;;;;;5098945;28;20039;-70
2023/04/03 09:19:36;;;;;;;5.40;1.75;;;7.90;95.20;;;;;;5119292;27;21409;-72
2023/04/03 09:22:26;;;;;;;9.05;1.73;;;8.00;93.90;;;;;;5102465;28;20047;-72
2023/04/03 09:25:05;;;;;;;3.95;1.48;;;8.00;95.70;;;;;;5121222;27;20064;-72
2023/04/03 09:27:31;;;;;;;5.78;1.90;;;8.20;96.50;;;;;;5108142;27;20118;-72
2023/04/03 09:29:57;;;;;;;3.08;1.50;;;8.50;97.50;;;;;;5124084;27;20166;-72
2023/04/03 09:32:29;;;;;;;5.47;2.30;;;8.50;96.80;;;;;;5110591;27;20134;-72
2023/04/03 09:35:07;;;;;;;4.50;1.60;;;8.40;93.50;;;;;;5129102;27;20369;-73
2023/04/03 09:37:38;;;;;;;4.43;1.70;;;8.40;93.90;;;;;;5130853;27;20189;-72
2023/04/03 09:40:05;;;;;;;3.40;1.30;;;8.30;92.60;;;;;;5112975;27;20095;-72
2023/04/03 09:42:32;;;;;;;6.00;1.80;;;8.50;95.10;;;;;;5126296;27;20062;-73
2023/04/03 09:45:04;;;;;;;4.03;1.52;;;8.60;93.90;;;;;;5124084;27;20039;-71
2023/04/03 09:47:33;;;;;;;7.35;1.65;;;8.70;94.70;;;;;;5125286;27;20052;-72
2023/04/03 09:50:14;;;;;;;7.05;2.00;;;8.90;94.90;;;;;;5116062;27;20485;-71
2023/04/03 09:52:45;;;;;;;3.55;1.80;;;8.90;93.70;;;;;;5122337;27;20042;-72
2023/04/03 09:55:16;;;;;;;5.38;1.50;;;9.10;92.70;;;;;;5126290;27;20111;-70
2023/04/03 09:57:43;;;;;;;4.15;1.70;;;9.20;91.80;;;;;;5118223;27;20039;-71
2023/04/03 10:00:36;;;;;;;6.72;1.90;;;9.20;90.40;;;;;;5128311;27;20081;-72
2023/04/03 10:03:04;;;;;;;3.50;1.40;;;9.10;90.50;;;;;;5121435;27;20572;-72
2023/04/03 10:05:37;;;;;;;5.07;1.90;;;9.20;91.20;;;;;;5100872;28;20043;-71
2023/04/03 10:08:14;;;;;;;3.47;1.40;;;9.10;90.00;;;;;;5116154;27;20032;-72
2023/04/03 10:10:45;;;;;;;6.78;1.50;;;9.30;91.60;;;;;;5123533;27;20070;-71
2023/04/03 10:13:14;;;;;;;4.35;1.40;;;9.40;88.30;;;;;;5125010;27;20039;-71
2023/04/03 10:15:43;;;;;;;3.67;1.48;;;9.50;90.40;;;;;;5117115;28;20039;-71
2023/04/03 10:18:45;;;;;;;4.10;1.60;;;9.60;87.90;;;;;;5117701;27;20061;-71
2023/04/03 10:21:44;;;;;;;3.75;1.45;;;9.90;86.40;;;;;;5132604;27;20043;-72
2023/04/03 10:24:14;;;;;;;5.05;1.42;;;9.90;85.60;;;;;;5107152;27;20047;-71
2023/04/03 10:27:11;;;;;;;3.78;1.50;;;10.40;91.60;;;;;;5119140;27;20055;-71
2023/04/03 10:29:48;;;;;;;2.92;1.30;;;10.40;84.50;;;;;;5105870;28;20040;-73
2023/04/03 10:32:17;;;;;;;4.17;1.60;;;10.90;87.50;;;;;;5124513;27;20040;-72
2023/04/03 10:34:44;;;;;;;4.90;1.50;;;11.20;86.30;;;;;;5111891;27;20472;-72
2023/04/03 10:37:13;;;;;;;3.30;1.30;;;11.40;84.50;;;;;;5132565;27;20031;-73
2023/04/03 10:40:12;;;;;;;4.30;1.35;;;11.40;83.70;;;;;;5131503;27;20043;-72
2023/04/03 10:42:53;;;;;;;7.63;1.60;;;11.40;74.20;;;;;;5115044;27;20075;-72
2023/04/03 10:45:45;;;;;;;2.40;1.20;;;11.60;79.10;;;;;;5130420;27;20083;-72
2023/04/03 10:48:40;;;;;;;2.20;1.30;;;11.90;79.30;;;;;;5130873;27;20557;-71
2023/04/03 10:51:41;;;;;;;4.72;1.48;;;12.00;75.80;;;;;;5128091;27;20035;-71
2023/04/03 10:54:33;;;;;;;4.72;1.20;;;12.00;73.00;;;;;;5131146;27;20475;-71
2023/04/03 10:57:05;;;;;;;2.90;1.30;;;12.10;73.60;;;;;;5128421;27;20447;-71
2023/04/03 10:59:36;;;;;;;3.95;1.30;;;12.60;75.60;;;;;;5121097;27;20065;-71
2023/04/03 11:02:24;;;;;;;2.35;1.30;;;12.80;78.10;;;;;;5123022;27;20051;-71
2023/04/03 11:05:00;;;;;;;4.20;1.40;;;13.10;71.40;;;;;;5124016;27;20047;-71
2023/04/03 11:07:32;;;;;;;3.05;1.45;;;13.00;69.00;;;;;;5116474;27;20050;-71
2023/04/03 11:10:09;;;;;;;3.08;1.30;;;13.00;71.00;;;;;;5129728;27;20031;-71
2023/04/03 11:13:20;;;;;;;6.85;1.63;;;13.30;71.10;;;;;;5103065;27;20051;-71
2023/04/03 11:15:46;;;;;;;6.45;1.63;;;13.40;69.70;;;;;;5061978;28;20053;-71
2023/04/03 11:18:25;;;;;;;3.45;1.60;;;13.30;68.70;;;;;;5070650;28;20067;-71
2023/04/03 11:21:19;;;;;;;2.15;1.27;;;13.30;64.90;;;;;;5092651;27;20043;-72
2023/04/03 11:23:46;;;;;;;3.85;1.52;;;13.40;65.50;;;;;;5090833;28;20040;-70
2023/04/03 11:26:15;;;;;;;3.08;1.30;;;13.40;63.40;;;;;;5120949;27;20046;-70
2023/04/03 11:28:41;;;;;;;3.75;1.45;;;13.20;63.50;;;;;;5120833;27;20097;-72
2023/04/03 11:31:13;;;;;;;3.30;1.52;;;13.00;65.10;;;;;;5108455;27;20031;-72
2023/04/03 11:34:03;;;;;;;2.53;1.20;;;13.20;64.00;;;;;;5121021;27;20035;-72
2023/04/03 11:36:41;;;;;;;3.63;1.52;;;13.20;62.30;;;;;;5125666;27;20043;-71
2023/04/03 11:39:31;;;;;;;13.43;1.52;;;13.30;64.60;;;;;;5117197;27;20039;-72
2023/04/03 11:42:13;;;;;;;3.67;1.60;;;13.60;66.10;;;;;;5103069;27;20077;-73
2023/04/03 11:44:39;;;;;;;3.78;1.30;;;13.70;66.30;;;;;;5130220;27;20039;-73
2023/04/03 11:47:07;;;;;;;3.00;1.35;;;13.90;66.00;;;;;;5131895;27;20472;-71
2023/04/03 11:50:02;;;;;;;5.05;1.55;;;14.10;65.30;;;;;;5107321;27;20136;-72
2023/04/03 11:52:40;;;;;;;14.40;1.70;;;13.90;62.90;;;;;;5112054;27;20050;-72
2023/04/03 11:55:21;;;;;;;3.05;1.50;;;14.10;62.30;;;;;;5129766;27;20055;-72
2023/04/03 11:57:59;;;;;;;6.10;1.80;;;14.00;62.40;;;;;;5126809;27;20045;-72
2023/04/03 12:00:43;;;;;;;3.78;1.60;;;14.10;61.90;;;;;;5130466;27;20122;-71
2023/04/03 12:03:27;;;;;;;4.82;1.60;;;14.00;62.60;;;;;;5115027;28;20610;-72
2023/04/03 12:06:14;;;;;;;5.20;1.63;;;14.20;60.90;;;;;;5114033;27;20055;-73
2023/04/03 12:08:40;;;;;;;3.55;1.42;;;14.40;62.70;;;;;;5130645;27;20039;-73
2023/04/03 12:11:12;;;;;;;4.15;1.75;;;14.20;61.90;;;;;;5132665;27;20047;-73
2023/04/03 12:13:50;;;;;;;5.35;1.63;;;14.60;62.70;;;;;;5129041;27;20043;-73
2023/04/03 12:16:23;;;;;;;6.30;1.67;;;14.20;61.30;;;;;;5117286;28;20127;-73
2023/04/03 12:18:48;;;;;;;5.18;1.50;;;14.30;60.60;;;;;;5138240;27;20435;-73
2023/04/03 12:21:19;;;;;;;4.05;1.33;;;14.40;63.00;;;;;;5129340;28;20043;-72
2023/04/03 12:24:05;;;;;;;3.33;1.38;;;14.60;63.00;;;;;;5132059;28;20039;-73
2023/04/03 12:26:52;;;;;;;3.70;1.70;;;14.70;57.30;;;;;;5123643;28;20046;-69
2023/04/03 12:29:32;;;;;;;2.83;1.50;;;14.60;58.90;;;;;;5127283;28;20281;-71
2023/04/03 12:32:10;;;;;;;3.80;1.58;;;15.10;59.60;;;;;;5131332;27;20099;-71
2023/04/03 12:34:57;;;;;;;3.78;1.23;;;15.10;59.70;;;;;;5136488;27;20472;-72
2023/04/03 12:37:39;;;;;;;6.18;1.60;;;15.50;60.60;;;;;;5146190;27;20052;-71
2023/04/03 12:40:41;;;;;;;3.28;1.50;;;15.20;57.90;;;;;;5129083;27;20077;-71
2023/04/03 12:43:43;;;;;;;2.08;1.15;;;15.20;56.30;;;;;;5133028;27;20518;-70
2023/04/03 12:46:16;;;;;;;4.57;1.67;;;14.80;56.60;;;;;;5126668;27;20044;-71
2023/04/03 12:48:45;;;;;;;2.63;1.27;;;15.20;57.10;;;;;;5101574;27;20036;-70
2023/04/03 12:51:18;;;;;;;3.47;1.60;;;15.30;55.60;;;;;;5120296;27;20040;-70
2023/04/03 12:53:45;;;;;;;2.83;1.17;;;14.90;55.40;;;;;;5098710;28;20126;-73
2023/04/03 12:56:28;;;;;;;3.80;1.42;;;15.00;55.80;;;;;;5122477;27;20047;-72
2023/04/03 12:59:12;;;;;;;3.95;1.30;;;15.30;56.00;;;;;;5129022;27;20058;-71
2023/04/03 13:01:39;;;;;;;4.22;1.30;;;15.20;55.40;;;;;;5105122;27;20066;-71
2023/04/03 13:04:05;;;;;;;3.15;1.40;;;15.40;55.00;;;;;;5122433;27;20047;-72
2023/04/03 13:06:38;;;;;;;1.67;1.02;;;16.00;54.90;;;;;;5123480;27;20044;-71
2023/04/03 13:09:06;;;;;;;4.22;1.30;;;15.40;53.70;;;;;;5123166;27;20071;-71